Time;durP1;ratioP1;P1;durP2;ratioP2;P2;SDS_P1;SDS_P2;PMS_P1;PMS_P2;Temp;Humidity;BMP_temperature;BMP_pressure;BME280_temperature;BME280_humidity;BME280_pressure;Samples;Min_cycle;Max_cycle;Signal;HPM_P1;HPM_P2
2021/10/03 00:02:25;;;;;;;23.40;14.28;;;;;;;7.06;75.88;97500.87;1740073;79;26333;-91
2021/10/03 00:04:53;;;;;;;25.30;14.87;;;;;;;7.07;76.03;97504.39;1726708;82;25898;-91
2021/10/03 00:07:21;;;;;;;20.43;13.72;;;;;;;7.02;76.04;97513.50;1731552;81;25808;-91
2021/10/03 00:09:51;;;;;;;24.95;15.75;;;;;;;7.00;76.18;97508.86;1710610;83;25782;-94
2021/10/03 00:12:21;;;;;;;35.73;18.35;;;;;;;7.01;76.20;97505.95;1752384;80;27379;-91
2021/10/03 00:14:49;;;;;;;25.25;15.85;;;;;;;7.05;76.14;97497.86;1709806;82;25955;-91
2021/10/03 00:17:16;;;;;;;24.45;16.27;;;;;;;7.06;76.09;97509.44;1688265;84;25827;-94
2021/10/03 00:19:43;;;;;;;20.82;14.85;;;;;;;7.08;76.06;97512.27;1729089;81;26756;-92
2021/10/03 00:22:10;;;;;;;20.72;13.93;;;;;;;7.07;76.05;97513.28;1729621;82;25837;-92
2021/10/03 00:24:37;;;;;;;19.05;14.78;;;;;;;7.06;76.00;97500.87;1734054;82;28192;-92
2021/10/03 00:27:04;;;;;;;22.50;13.60;;;;;;;7.08;76.06;97507.41;1733872;82;25861;-92
2021/10/03 00:29:31;;;;;;;21.82;14.90;;;;;;;7.13;76.09;97502.28;1734133;82;25750;-91
2021/10/03 00:31:58;;;;;;;19.35;13.78;;;;;;;7.12;76.08;97506.86;1689804;83;25810;-91
2021/10/03 00:34:24;;;;;;;21.50;15.23;;;;;;;7.08;75.99;97503.38;1710955;82;25805;-91
2021/10/03 00:36:51;;;;;;;21.27;14.07;;;;;;;7.06;76.08;97500.04;1729085;82;27539;-91
2021/10/03 00:39:17;;;;;;;21.70;14.78;;;;;;;7.06;76.03;97498.70;1732702;82;25876;-93
2021/10/03 00:41:44;;;;;;;17.73;13.03;;;;;;;7.06;76.00;97502.73;1733972;82;25794;-92
2021/10/03 00:44:11;;;;;;;19.60;14.13;;;;;;;7.07;76.06;97504.39;1730234;82;26502;-90
2021/10/03 00:46:37;;;;;;;21.52;13.88;;;;;;;7.06;75.98;97516.98;1709976;82;25788;-91
2021/10/03 00:49:04;;;;;;;19.37;14.20;;;;;;;7.03;75.88;97515.17;1729564;82;28207;-91
2021/10/03 00:51:31;;;;;;;20.75;14.50;;;;;;;7.04;75.90;97514.16;1727948;82;25803;-95
2021/10/03 00:53:58;;;;;;;23.38;14.35;;;;;;;7.00;75.83;97511.54;1728715;82;25747;-94
2021/10/03 00:56:25;;;;;;;19.37;13.43;;;;;;;6.88;75.89;97505.81;1730371;82;25731;-92
2021/10/03 00:58:51;;;;;;;20.92;14.03;;;;;;;6.76;75.95;97504.06;1717254;82;25698;-93
2021/10/03 01:01:20;;;;;;;23.50;14.07;;;;;;;6.72;76.11;97501.96;1727222;82;27375;-93
2021/10/03 01:03:46;;;;;;;20.97;14.10;;;;;;;6.69;76.23;97504.50;1719618;82;25830;-95
2021/10/03 01:06:13;;;;;;;23.73;13.95;;;;;;;6.62;76.44;97500.90;1712285;82;25356;-92
2021/10/03 01:08:40;;;;;;;19.55;13.70;;;;;;;6.56;76.48;97500.27;1726671;82;26559;-93
2021/10/03 01:11:07;;;;;;;23.85;16.00;;;;;;;6.53;76.64;97504.66;1737197;82;25780;-91
2021/10/03 01:13:34;;;;;;;24.23;15.23;;;;;;;6.56;76.73;97497.59;1731570;82;27540;-92
2021/10/03 01:16:00;;;;;;;21.42;14.70;;;;;;;6.58;76.69;97495.56;1737553;82;25803;-94
2021/10/03 01:18:27;;;;;;;21.48;14.20;;;;;;;6.62;76.65;97491.51;1732046;82;25688;-94
2021/10/03 01:20:54;;;;;;;26.62;15.05;;;;;;;6.52;76.59;97496.28;1738204;82;25717;-93
2021/10/03 01:23:21;;;;;;;22.73;14.10;;;;;;;6.42;76.71;97494.38;1733820;82;25322;-93
2021/10/03 01:25:50;;;;;;;20.43;14.07;;;;;;;6.38;76.84;97494.45;1722816;82;27402;-96
2021/10/03 01:28:19;;;;;;;25.55;15.08;;;;;;;6.37;76.91;97491.44;1733608;82;25325;-95
2021/10/03 01:30:50;;;;;;;23.02;14.33;;;;;;;6.30;77.00;97493.16;1735077;82;25786;-93
2021/10/03 01:33:17;;;;;;;18.82;13.68;;;;;;;6.25;77.07;97494.23;1716057;82;25752;-96
2021/10/03 01:35:46;;;;;;;18.57;13.28;;;;;;;6.23;77.20;97493.58;1715582;82;25837;-95
2021/10/03 01:38:14;;;;;;;21.60;14.40;;;;;;;6.17;77.23;97492.44;1733587;82;27548;-94
2021/10/03 01:40:45;;;;;;;21.27;14.00;;;;;;;6.10;77.22;97482.97;1732734;82;25646;-92
2021/10/03 01:43:14;;;;;;;22.45;13.70;;;;;;;6.12;77.29;97480.11;1718338;82;25371;-92
2021/10/03 01:45:41;;;;;;;20.55;14.60;;;;;;;6.12;77.22;97479.61;1713516;82;26508;-93
2021/10/03 01:48:23;;;;;;;25.57;14.00;;;;;;;6.13;77.24;97483.13;1734393;82;25802;-94
2021/10/03 01:50:57;;;;;;;22.82;14.28;;;;;;;6.17;77.31;97472.84;1728545;82;28280;-92
2021/10/03 01:53:35;;;;;;;21.37;14.07;;;;;;;6.12;77.29;97470.23;1733946;82;26273;-92
2021/10/03 01:56:04;;;;;;;18.45;13.45;;;;;;;6.11;77.33;97466.38;1731137;80;25758;-91
2021/10/03 01:58:35;;;;;;;19.02;13.32;;;;;;;6.10;77.43;97460.19;1740799;81;25753;-93
2021/10/03 02:01:10;;;;;;;19.62;13.58;;;;;;;6.12;77.52;97458.16;1744856;80;25800;-91
2021/10/03 02:03:36;;;;;;;22.93;13.40;;;;;;;6.11;77.51;97457.00;1738034;81;28044;-94
2021/10/03 02:06:03;;;;;;;21.93;14.58;;;;;;;6.07;77.49;97459.71;1742138;81;25641;-93
2021/10/03 02:08:29;;;;;;;20.80;14.13;;;;;;;6.03;77.52;97453.91;1709134;82;25809;-95
2021/10/03 02:10:57;;;;;;;22.82;14.55;;;;;;;6.03;77.52;97448.55;1763415;81;25774;-92
2021/10/03 02:13:24;;;;;;;20.32;13.80;;;;;;;6.01;77.47;97446.55;1758743;79;25852;-92
2021/10/03 02:15:52;;;;;;;20.25;13.48;;;;;;;6.01;77.43;97449.73;1768364;79;27422;-92
2021/10/03 02:18:21;;;;;;;27.27;13.28;;;;;;;5.96;77.52;97450.27;1760476;79;25290;-94
2021/10/03 02:20:52;;;;;;;20.30;14.05;;;;;;;5.90;77.56;97451.01;1768960;80;25807;-91
2021/10/03 02:23:19;;;;;;;18.62;13.70;;;;;;;5.88;77.62;97451.69;1765243;79;25746;-94
2021/10/03 02:25:47;;;;;;;20.25;14.38;;;;;;;5.91;77.79;97453.18;1762428;79;25294;-93
2021/10/03 02:28:20;;;;;;;24.07;14.18;;;;;;;5.88;77.69;97454.37;1747508;81;27392;-94
2021/10/03 02:30:51;;;;;;;23.75;12.93;;;;;;;5.81;77.64;97457.39;1772511;79;34763;-93
2021/10/03 02:33:20;;;;;;;21.23;14.43;;;;;;;5.74;77.70;97453.78;1754870;79;25258;-96
2021/10/03 02:35:49;;;;;;;26.20;13.60;;;;;;;5.70;77.78;97450.62;1762467;81;26414;-94
2021/10/03 02:38:20;;;;;;;19.12;12.90;;;;;;;5.67;77.81;97448.83;1769365;81;25271;-93
2021/10/03 02:40:48;;;;;;;19.07;14.03;;;;;;;5.64;77.87;97443.82;1767832;81;27627;-95
2021/10/03 02:43:16;;;;;;;20.90;13.53;;;;;;;5.61;77.95;97448.19;1758762;79;25748;-92
2021/10/03 02:45:47;;;;;;;20.45;14.15;;;;;;;5.58;78.10;97444.52;1768003;81;25738;-95
2021/10/03 02:48:15;;;;;;;22.62;13.55;;;;;;;5.56;78.17;97443.86;1763595;79;25727;-93
2021/10/03 02:50:42;;;;;;;19.75;13.43;;;;;;;5.57;78.27;97448.21;1745121;79;25812;-93
2021/10/03 02:53:09;;;;;;;18.98;13.20;;;;;;;5.61;78.27;97445.00;1757393;79;28345;-93
2021/10/03 02:55:38;;;;;;;20.05;12.90;;;;;;;5.61;78.25;97430.28;1763041;79;25314;-92
2021/10/03 02:58:06;;;;;;;19.42;13.40;;;;;;;5.58;78.26;97423.10;1755447;79;26419;-95
2021/10/03 03:00:37;;;;;;;20.90;13.60;;;;;;;5.55;78.30;97426.16;1766145;79;25710;-94
2021/10/03 03:03:04;;;;;;;20.65;12.55;;;;;;;5.52;78.30;97419.31;1747955;81;25520;-96
2021/10/03 03:05:31;;;;;;;20.82;13.85;;;;;;;5.50;78.33;97422.67;1758111;79;27389;-92
2021/10/03 03:07:58;;;;;;;18.48;13.03;;;;;;;5.52;78.36;97426.52;1754049;81;25515;-94
2021/10/03 03:10:25;;;;;;;22.15;13.10;;;;;;;5.55;78.33;97418.13;1733864;81;25746;-94
2021/10/03 03:12:52;;;;;;;18.52;13.05;;;;;;;5.58;78.28;97425.27;1731682;82;25907;-93
2021/10/03 03:15:19;;;;;;;18.23;13.43;;;;;;;5.62;78.25;97418.56;1712309;82;25789;-92
2021/10/03 03:17:45;;;;;;;21.82;13.95;;;;;;;5.65;78.17;97417.37;1725677;82;27603;-92
2021/10/03 03:20:12;;;;;;;19.30;13.30;;;;;;;5.68;78.08;97423.68;1720545;82;26306;-92
2021/10/03 03:22:39;;;;;;;18.82;13.28;;;;;;;5.69;77.98;97422.67;1731766;82;25807;-91
2021/10/03 03:25:09;;;;;;;18.12;13.10;;;;;;;5.71;77.91;97424.16;1727945;82;26290;-92
2021/10/03 03:27:36;;;;;;;20.50;13.32;;;;;;;5.71;77.80;97420.14;1725122;82;25705;-92
2021/10/03 03:30:05;;;;;;;19.62;13.58;;;;;;;5.67;77.68;97416.69;1725202;82;27430;-92
2021/10/03 03:32:32;;;;;;;19.37;12.98;;;;;;;5.67;77.74;97412.67;1725885;82;25809;-91
2021/10/03 03:34:59;;;;;;;18.50;12.37;;;;;;;5.68;77.64;97414.31;1728677;82;25828;-92
2021/10/03 03:37:25;;;;;;;19.55;12.50;;;;;;;5.66;77.54;97414.52;1729797;82;26516;-91
2021/10/03 03:39:52;;;;;;;21.07;12.50;;;;;;;5.65;77.53;97413.35;1727623;82;25824;-92
2021/10/03 03:42:18;;;;;;;18.75;12.65;;;;;;;5.65;77.57;97415.53;1727909;82;27438;-92
2021/10/03 03:44:45;;;;;;;19.90;12.70;;;;;;;5.65;77.52;97413.35;1724732;82;25884;-91
2021/10/03 03:47:12;;;;;;;20.23;13.05;;;;;;;5.64;77.64;97411.69;1714523;82;25860;-90
2021/10/03 03:49:38;;;;;;;19.70;13.35;;;;;;;5.66;77.64;97407.82;1721640;82;26454;-94
2021/10/03 03:52:06;;;;;;;18.05;12.25;;;;;;;5.65;77.55;97416.87;1685697;82;25282;-94
2021/10/03 03:54:32;;;;;;;22.32;12.90;;;;;;;5.62;77.50;97424.42;1710992;82;27441;-93
2021/10/03 03:56:59;;;;;;;17.02;11.95;;;;;;;5.60;77.51;97424.59;1709561;82;25806;-93
2021/10/03 03:59:25;;;;;;;17.23;12.33;;;;;;;5.59;77.50;97418.08;1731877;82;25796;-93
2021/10/03 04:01:53;;;;;;;18.05;12.43;;;;;;;5.58;77.44;97422.59;1727061;82;25723;-92
2021/10/03 04:04:20;;;;;;;16.95;11.18;;;;;;;5.56;77.40;97417.09;1727989;82;26322;-92
2021/10/03 04:06:46;;;;;;;19.12;13.28;;;;;;;5.56;77.32;97414.41;1709283;82;27429;-95
2021/10/03 04:09:13;;;;;;;18.77;13.00;;;;;;;5.52;77.20;97413.95;1714371;82;25838;-94
2021/10/03 04:11:40;;;;;;;24.50;12.03;;;;;;;5.46;77.16;97415.16;1726073;81;25723;-94
2021/10/03 04:14:06;;;;;;;17.52;12.75;;;;;;;5.38;77.27;97408.87;1732907;81;25788;-93
2021/10/03 04:16:33;;;;;;;18.87;12.25;;;;;;;5.39;77.38;97409.20;1732555;81;25721;-95
2021/10/03 04:19:00;;;;;;;16.37;12.00;;;;;;;5.38;77.47;97404.86;1731344;81;27529;-94
2021/10/03 04:21:26;;;;;;;19.15;12.23;;;;;;;5.29;77.35;97403.26;1732942;81;25922;-94
2021/10/03 04:23:53;;;;;;;20.02;12.78;;;;;;;5.26;77.46;97410.80;1732540;81;25830;-95
2021/10/03 04:26:20;;;;;;;17.45;11.85;;;;;;;5.29;77.59;97413.97;1732991;81;26448;-93
2021/10/03 04:28:46;;;;;;;22.50;13.03;;;;;;;5.33;77.62;97408.56;1711596;81;25762;-94
2021/10/03 04:31:13;;;;;;;18.45;13.72;;;;;;;5.35;77.54;97409.22;1732567;81;27359;-93
2021/10/03 04:33:43;;;;;;;21.82;13.25;;;;;;;5.34;77.46;97406.21;1732871;81;25350;-94
2021/10/03 04:36:11;;;;;;;25.75;13.70;;;;;;;5.31;77.35;97403.89;1732733;82;25810;-94
2021/10/03 04:38:39;;;;;;;24.85;13.45;;;;;;;5.24;77.29;97405.62;1732985;81;25805;-96
2021/10/03 04:41:07;;;;;;;18.48;13.55;;;;;;;5.18;77.35;97410.36;1711972;81;25474;-94
2021/10/03 04:43:33;;;;;;;19.90;13.10;;;;;;;5.10;77.36;97411.73;1719630;82;27400;-93
2021/10/03 04:46:00;;;;;;;17.02;12.50;;;;;;;5.07;77.53;97407.56;1724459;82;25291;-95
2021/10/03 04:48:26;;;;;;;24.82;13.83;;;;;;;5.07;77.61;97406.22;1733154;81;25784;-94
2021/10/03 04:50:53;;;;;;;22.70;13.03;;;;;;;5.03;77.59;97403.59;1713467;82;26423;-96
2021/10/03 04:53:20;;;;;;;20.60;13.88;;;;;;;4.96;77.64;97397.77;1731120;81;25754;-94
2021/10/03 04:55:46;;;;;;;22.80;14.20;;;;;;;4.91;77.79;97401.49;1732643;82;27551;-95
2021/10/03 04:58:13;;;;;;;20.72;13.68;;;;;;;4.96;77.96;97401.28;1733054;81;26918;-94
2021/10/03 05:00:39;;;;;;;23.70;12.88;;;;;;;5.00;78.04;97399.92;1732757;81;25335;-94
2021/10/03 05:03:06;;;;;;;21.97;13.98;;;;;;;5.01;77.94;97401.59;1732513;81;25761;-93
2021/10/03 05:05:33;;;;;;;28.27;14.43;;;;;;;5.05;78.05;97400.75;1734037;82;25834;-95
2021/10/03 05:07:59;;;;;;;21.10;16.02;;;;;;;5.11;78.00;97402.70;1732779;82;28314;-95
2021/10/03 05:10:26;;;;;;;22.07;16.62;;;;;;;5.11;77.82;97406.71;1732938;81;25789;-94
2021/10/03 05:12:53;;;;;;;24.47;17.20;;;;;;;5.12;77.75;97412.90;1733363;82;25601;-94
2021/10/03 05:15:19;;;;;;;23.92;17.35;;;;;;;5.13;77.75;97412.72;1732502;81;26436;-94
2021/10/03 05:17:46;;;;;;;22.13;17.17;;;;;;;5.14;77.68;97406.87;1733886;81;25550;-94
2021/10/03 05:20:13;;;;;;;29.52;16.67;;;;;;;5.17;77.73;97410.03;1734616;81;27557;-95
2021/10/03 05:22:39;;;;;;;27.22;17.75;;;;;;;5.19;77.73;97412.53;1732794;81;25721;-94
2021/10/03 05:25:08;;;;;;;25.32;17.82;;;;;;;5.19;77.74;97411.20;1732545;82;25282;-91
2021/10/03 05:27:34;;;;;;;26.33;17.82;;;;;;;5.19;77.81;97410.69;1732787;82;26868;-93
2021/10/03 05:30:01;;;;;;;31.97;18.57;;;;;;;5.22;77.81;97412.16;1732342;81;25557;-94
2021/10/03 05:32:27;;;;;;;26.07;19.12;;;;;;;5.23;77.86;97416.00;1732754;81;26759;-93
2021/10/03 05:34:54;;;;;;;21.50;16.82;;;;;;;5.28;77.95;97418.98;1732139;81;25678;-96
2021/10/03 05:37:21;;;;;;;23.40;16.85;;;;;;;5.34;77.99;97425.45;1733326;81;25726;-95
2021/10/03 05:39:47;;;;;;;24.72;16.65;;;;;;;5.38;78.03;97422.76;1725013;81;25870;-94
2021/10/03 05:42:14;;;;;;;27.62;18.73;;;;;;;5.42;78.04;97424.91;1721415;82;25763;-95
2021/10/03 05:44:40;;;;;;;27.55;19.32;;;;;;;5.47;78.09;97414.98;1733355;81;27850;-95
2021/10/03 05:47:07;;;;;;;22.45;16.50;;;;;;;5.53;78.13;97420.14;1733190;81;25669;-96
2021/10/03 05:49:33;;;;;;;27.45;18.60;;;;;;;5.57;78.18;97414.73;1735261;81;25769;-94
2021/10/03 05:52:00;;;;;;;24.92;17.73;;;;;;;5.60;78.27;97409.86;1732966;81;25822;-94
2021/10/03 05:54:27;;;;;;;23.85;17.07;;;;;;;5.65;78.34;97406.66;1735187;82;25296;-94
2021/10/03 05:56:53;;;;;;;25.85;17.60;;;;;;;5.69;78.38;97407.44;1734846;82;27620;-94
2021/10/03 05:59:20;;;;;;;28.87;18.07;;;;;;;5.74;78.51;97398.37;1732451;82;25775;-94
2021/10/03 06:01:46;;;;;;;26.52;17.10;;;;;;;5.82;78.58;97400.63;1726556;81;25291;-96
2021/10/03 06:04:13;;;;;;;24.67;16.67;;;;;;;5.87;78.66;97402.27;1719506;82;26312;-91
2021/10/03 06:06:40;;;;;;;26.50;18.32;;;;;;;5.89;78.74;97401.12;1733293;81;25330;-94
2021/10/03 06:09:06;;;;;;;29.12;16.82;;;;;;;5.93;78.80;97398.38;1734305;81;28157;-93
2021/10/03 06:11:33;;;;;;;32.38;18.30;;;;;;;5.98;78.85;97398.67;1732565;81;26373;-92
2021/10/03 06:14:00;;;;;;;23.15;16.25;;;;;;;6.06;78.97;97401.27;1732383;82;25834;-93
2021/10/03 06:16:26;;;;;;;25.12;16.15;;;;;;;6.11;78.96;97398.88;1732101;81;26438;-91
2021/10/03 06:18:53;;;;;;;25.40;16.05;;;;;;;6.18;78.97;97402.15;1732711;81;26304;-90
2021/10/03 06:21:20;;;;;;;26.17;16.57;;;;;;;6.24;78.99;97394.73;1731616;82;27447;-89
2021/10/03 06:23:47;;;;;;;23.47;16.62;;;;;;;6.31;79.07;97388.94;1732255;81;25773;-91
2021/10/03 06:26:15;;;;;;;25.40;15.60;;;;;;;6.37;79.10;97391.73;1732449;81;25832;-91
2021/10/03 06:28:42;;;;;;;26.93;18.30;;;;;;;6.44;79.23;97390.47;1731916;81;25848;-90
2021/10/03 06:31:09;;;;;;;27.75;17.85;;;;;;;6.52;79.26;97390.36;1732602;82;25695;-91
2021/10/03 06:33:37;;;;;;;25.23;17.32;;;;;;;6.61;79.34;97387.92;1731878;81;28281;-90
2021/10/03 06:36:04;;;;;;;26.68;17.45;;;;;;;6.70;79.44;97392.16;1732534;81;25296;-90
2021/10/03 06:38:31;;;;;;;26.37;18.23;;;;;;;6.80;79.53;97402.08;1732209;82;25559;-90
2021/10/03 06:40:58;;;;;;;25.65;18.25;;;;;;;6.93;79.64;97391.19;1732662;81;26357;-90
2021/10/03 06:43:24;;;;;;;28.30;17.42;;;;;;;7.02;79.65;97391.38;1732679;82;25740;-90
2021/10/03 06:45:51;;;;;;;23.95;16.80;;;;;;;7.10;79.67;97391.29;1732668;82;28446;-90
2021/10/03 06:48:17;;;;;;;27.60;17.10;;;;;;;7.21;79.71;97398.84;1732249;81;25865;-89
2021/10/03 06:50:44;;;;;;;22.27;16.52;;;;;;;7.33;79.76;97394.63;1732893;82;25750;-89
2021/10/03 06:53:11;;;;;;;28.25;16.77;;;;;;;7.45;79.89;97391.76;1732704;82;25775;-89
2021/10/03 06:55:37;;;;;;;25.00;16.40;;;;;;;7.57;79.94;97399.63;1732049;81;25750;-88
2021/10/03 06:58:04;;;;;;;22.82;16.32;;;;;;;7.72;80.05;97402.24;1732630;81;27373;-89
2021/10/03 07:00:31;;;;;;;26.62;16.87;;;;;;;7.85;80.07;97390.74;1732393;82;25784;-88
2021/10/03 07:02:57;;;;;;;24.30;16.25;;;;;;;8.00;80.12;97386.63;1732897;81;25768;-88
2021/10/03 07:05:24;;;;;;;27.02;15.63;;;;;;;8.16;80.07;97383.14;1732118;81;25919;-92
2021/10/03 07:07:51;;;;;;;21.48;15.50;;;;;;;8.36;80.06;97391.87;1732541;82;25919;-91
2021/10/03 07:10:17;;;;;;;24.65;16.87;;;;;;;8.58;79.97;97387.55;1732657;81;27362;-92
2021/10/03 07:12:44;;;;;;;29.40;17.92;;;;;;;8.81;79.90;97388.61;1732607;81;25795;-90
2021/10/03 07:15:10;;;;;;;25.77;18.20;;;;;;;9.04;79.75;97388.28;1732782;81;25827;-90
2021/10/03 07:17:37;;;;;;;25.12;17.00;;;;;;;9.29;79.65;97388.05;1732819;81;26618;-91
2021/10/03 07:20:05;;;;;;;21.15;15.25;;;;;;;9.57;79.56;97387.88;1732248;81;25740;-89
2021/10/03 07:22:31;;;;;;;20.72;14.28;;;;;;;9.87;79.31;97382.09;1732665;81;27535;-89
2021/10/03 07:24:58;;;;;;;17.92;12.65;;;;;;;10.17;79.09;97377.09;1732192;81;25665;-89
2021/10/03 07:27:25;;;;;;;18.82;12.55;;;;;;;10.46;78.75;97382.06;1732740;81;25772;-88
2021/10/03 07:29:51;;;;;;;15.88;11.53;;;;;;;10.73;78.39;97376.08;1732303;81;25830;-88
2021/10/03 07:32:18;;;;;;;15.83;11.95;;;;;;;11.03;78.18;97377.70;1711431;82;25554;-88
2021/10/03 07:34:45;;;;;;;15.48;11.30;;;;;;;11.30;77.69;97375.70;1732161;81;28157;-89
2021/10/03 07:37:11;;;;;;;14.07;11.20;;;;;;;11.57;77.32;97372.33;1732489;81;25844;-89
2021/10/03 07:39:38;;;;;;;15.58;10.28;;;;;;;11.83;76.93;97374.32;1732182;81;25801;-89
2021/10/03 07:42:06;;;;;;;14.83;10.98;;;;;;;12.11;76.34;97371.71;1731235;82;25800;-88
2021/10/03 07:44:33;;;;;;;12.45;10.18;;;;;;;12.43;75.83;97369.23;1750097;81;25736;-88
2021/10/03 07:46:59;;;;;;;13.98;10.58;;;;;;;12.76;75.42;97368.03;1702757;82;27569;-89
2021/10/03 07:49:26;;;;;;;13.72;9.58;;;;;;;13.08;75.16;97366.80;1702685;82;26377;-87
2021/10/03 07:51:53;;;;;;;10.50;9.33;;;;;;;13.44;74.70;97369.16;1686693;82;25714;-87
2021/10/03 07:54:19;;;;;;;17.07;10.40;;;;;;;13.82;74.48;97368.81;1701296;82;26283;-88
2021/10/03 07:56:46;;;;;;;17.05;9.85;;;;;;;14.20;73.65;97371.11;1721578;82;25819;-90
2021/10/03 07:59:12;;;;;;;12.80;9.35;;;;;;;14.54;73.14;97363.52;1721229;81;28192;-89
2021/10/03 08:01:39;;;;;;;16.25;9.28;;;;;;;14.95;72.64;97362.53;1731147;82;25881;-88
2021/10/03 08:04:06;;;;;;;15.63;10.68;;;;;;;15.33;72.18;97359.22;1749943;81;25772;-89
2021/10/03 08:06:32;;;;;;;12.18;9.05;;;;;;;15.63;71.60;97356.26;1731326;82;25744;-89
2021/10/03 08:09:00;;;;;;;11.22;8.20;;;;;;;15.90;70.78;97357.83;1750108;80;25783;-88
2021/10/03 08:11:27;;;;;;;9.83;8.75;;;;;;;16.11;69.91;97357.09;1728629;82;28117;-88
2021/10/03 08:13:54;;;;;;;11.88;7.90;;;;;;;16.39;69.43;97362.16;1731615;82;25726;-90
2021/10/03 08:16:20;;;;;;;9.53;8.15;;;;;;;16.63;68.79;97362.81;1732474;81;25789;-91
2021/10/03 08:18:48;;;;;;;10.13;7.92;;;;;;;16.80;68.04;97352.14;1703125;82;25872;-90
2021/10/03 08:21:16;;;;;;;9.73;7.80;;;;;;;16.97;67.32;97354.83;1722774;82;25745;-92
2021/10/03 08:23:43;;;;;;;12.53;7.85;;;;;;;17.12;66.56;97352.84;1732401;82;28425;-91
2021/10/03 08:26:10;;;;;;;13.70;8.25;;;;;;;17.26;66.10;97352.73;1732496;82;26383;-89
2021/10/03 08:28:37;;;;;;;12.93;7.70;;;;;;;17.42;65.88;97347.72;1732561;81;25769;-90
2021/10/03 08:31:03;;;;;;;10.58;7.70;;;;;;;17.55;65.36;97345.95;1731769;82;25826;-88
2021/10/03 08:33:30;;;;;;;9.13;7.10;;;;;;;17.69;64.87;97346.94;1731777;82;25788;-90
2021/10/03 08:35:56;;;;;;;12.07;7.25;;;;;;;17.87;64.67;97343.28;1732574;82;27353;-90
2021/10/03 08:38:23;;;;;;;10.78;7.97;;;;;;;18.04;63.70;97347.27;1731516;81;25678;-89
2021/10/03 08:40:50;;;;;;;10.50;8.43;;;;;;;18.17;63.31;97350.92;1732306;82;25702;-88
2021/10/03 08:43:17;;;;;;;11.78;7.62;;;;;;;18.31;62.71;97343.94;1711696;82;26482;-89
2021/10/03 08:45:45;;;;;;;11.12;7.05;;;;;;;18.44;62.50;97348.13;1726673;82;25724;-88
2021/10/03 08:48:15;;;;;;;12.55;7.40;;;;;;;18.59;61.92;97346.08;1702667;84;27445;-87
2021/10/03 08:50:45;;;;;;;9.13;7.10;;;;;;;18.71;61.25;97349.44;1703168;84;25827;-90
2021/10/03 08:53:14;;;;;;;11.83;7.45;;;;;;;18.79;60.84;97350.29;1703148;84;25804;-89
2021/10/03 08:55:42;;;;;;;9.73;7.25;;;;;;;18.91;60.64;97344.06;1703344;84;25800;-88
2021/10/03 08:58:08;;;;;;;10.38;7.37;;;;;;;19.06;60.21;97344.69;1703313;84;25677;-87
2021/10/03 09:00:48;;;;;;;11.53;7.65;;;;;;;19.19;59.71;97338.73;1703282;84;28085;-88
2021/10/03 09:03:17;;;;;;;10.43;6.80;;;;;;;19.33;59.23;97343.13;1702959;84;25727;-89
2021/10/03 09:05:57;;;;;;;7.80;6.10;;;;;;;19.41;58.67;97341.25;1723131;83;26131;-89
2021/10/03 09:08:29;;;;;;;14.73;6.85;;;;;;;19.45;58.05;97340.97;1732497;81;25820;-88
2021/10/03 09:11:00;;;;;;;10.90;6.95;;;;;;;19.58;58.14;97332.83;1698190;83;25882;-88
2021/10/03 09:13:39;;;;;;;7.83;6.47;;;;;;;19.71;57.71;97335.87;1708042;82;27410;-89
2021/10/03 09:16:32;;;;;;;10.72;6.33;;;;;;;19.82;57.13;97338.62;1709475;82;25705;-91
2021/10/03 09:19:12;;;;;;;7.67;6.33;;;;;;;19.93;56.05;97315.62;1731376;82;25737;-89
2021/10/03 09:21:42;;;;;;;10.95;6.37;;;;;;;19.93;56.05;97315.62;1736539;82;25675;-88
2021/10/03 09:24:16;;;;;;;7.67;6.72;;;;;;;20.15;56.57;97331.27;1735476;82;25752;-89
2021/10/03 09:27:03;;;;;;;8.48;5.97;;;;;;;20.24;56.18;97330.98;1736805;82;28115;-90
2021/10/03 09:29:36;;;;;;;9.38;5.55;;;;;;;20.28;55.34;97327.97;1728551;82;25787;-91
2021/10/03 09:32:13;;;;;;;7.45;5.97;;;;;;;20.37;54.25;97324.98;1736766;82;25797;-89
2021/10/03 09:34:47;;;;;;;13.53;7.08;;;;;;;20.43;54.21;97324.41;1717345;82;25858;-87
2021/10/03 09:37:27;;;;;;;8.00;6.37;;;;;;;20.51;53.45;97304.67;1715908;82;25774;-89
2021/10/03 09:40:12;;;;;;;7.08;5.28;;;;;;;20.51;53.45;97304.67;1736894;82;27390;-89
2021/10/03 09:42:40;;;;;;;8.43;5.47;;;;;;;20.76;53.24;97322.98;1736783;82;25680;-87
2021/10/03 09:45:11;;;;;;;8.85;6.08;;;;;;;20.90;53.09;97325.39;1736384;82;25783;-90
2021/10/03 09:47:40;;;;;;;8.25;5.55;;;;;;;21.01;52.52;97317.39;1737487;82;25771;-88
2021/10/03 09:50:11;;;;;;;9.63;6.47;;;;;;;21.06;52.15;97317.94;1736308;82;25335;-88
2021/10/03 09:52:39;;;;;;;8.80;6.12;;;;;;;21.11;52.33;97317.37;1717865;82;27387;-85
2021/10/03 09:55:13;;;;;;;6.33;5.40;;;;;;;21.22;52.32;97317.36;1736320;82;26035;-90
2021/10/03 09:57:39;;;;;;;9.23;6.17;;;;;;;21.30;51.53;97305.23;1735361;82;25766;-90
2021/10/03 10:00:07;;;;;;;9.70;5.78;;;;;;;21.30;51.53;97305.23;1707213;82;26466;-90
2021/10/03 10:02:34;;;;;;;7.72;6.25;;;;;;;21.31;51.46;97306.05;1737174;82;25700;-89
2021/10/03 10:05:01;;;;;;;8.45;6.33;;;;;;;21.40;51.36;97302.97;1739070;82;28278;-87
2021/10/03 10:07:28;;;;;;;8.20;6.08;;;;;;;21.49;50.89;97297.18;1737355;82;25247;-87
2021/10/03 10:09:55;;;;;;;9.40;6.10;;;;;;;21.52;50.83;97295.22;1708027;82;25811;-87
2021/10/03 10:12:26;;;;;;;8.38;6.67;;;;;;;21.56;51.18;97287.51;1707516;82;26612;-89
2021/10/03 10:15:04;;;;;;;7.08;6.03;;;;;;;21.60;50.77;97285.02;1707550;83;25985;-87
2021/10/03 10:17:41;;;;;;;8.25;6.35;;;;;;;21.60;50.77;97285.02;1707389;84;27500;-88
2021/10/03 10:20:24;;;;;;;6.35;5.72;;;;;;;21.60;49.93;97282.28;1707740;83;25866;-88
2021/10/03 10:23:00;;;;;;;10.08;5.85;;;;;;;21.43;50.29;97261.23;1691678;82;25738;-92
2021/10/03 10:25:44;;;;;;;9.63;5.25;;;;;;;21.70;50.08;97263.52;1707307;84;25762;-90
2021/10/03 10:28:30;;;;;;;7.95;5.15;;;;;;;21.70;50.08;97263.52;1707634;83;26481;-87
2021/10/03 10:31:19;;;;;;;8.25;5.75;;;;;;;21.69;49.51;97264.08;1707091;83;27385;-87
2021/10/03 10:34:02;;;;;;;7.05;5.87;;;;;;;21.72;48.96;97259.39;1707144;83;26490;-87
2021/10/03 10:36:51;;;;;;;8.35;5.75;;;;;;;21.78;49.38;97254.66;1707813;83;25829;-86
2021/10/03 10:39:21;;;;;;;8.48;5.37;;;;;;;21.86;49.43;97249.36;1703868;84;26283;-87
2021/10/03 10:41:52;;;;;;;6.83;5.12;;;;;;;21.95;49.56;97252.89;1707761;84;26300;-88
2021/10/03 10:44:36;;;;;;;7.70;4.90;;;;;;;21.95;49.52;97255.08;1679158;84;27317;-93
2021/10/03 10:47:14;;;;;;;8.85;5.35;;;;;;;21.96;49.27;97248.48;1679174;84;25792;-87
2021/10/03 10:49:48;;;;;;;6.85;5.50;;;;;;;22.06;49.29;97244.30;1689725;82;25802;-90
2021/10/03 10:52:24;;;;;;;7.72;5.10;;;;;;;22.16;49.19;97246.95;1707824;82;25849;-90
2021/10/03 10:55:05;;;;;;;6.12;5.10;;;;;;;22.18;48.70;97232.91;1707741;83;26586;-87
2021/10/03 10:57:48;;;;;;;9.73;5.30;;;;;;;22.08;48.75;97208.28;1702655;83;27393;-89
2021/10/03 11:00:20;;;;;;;7.80;5.20;;;;;;;22.06;48.84;97206.37;1703130;82;25352;-90
2021/10/03 11:02:58;;;;;;;8.75;5.10;;;;;;;22.21;48.45;97234.54;1707985;82;25742;-90
2021/10/03 11:05:40;;;;;;;7.10;4.83;;;;;;;22.24;48.57;97222.94;1707647;83;25801;-89
2021/10/03 11:08:20;;;;;;;6.85;5.03;;;;;;;22.31;48.76;97229.48;1707809;83;25805;-89
2021/10/03 11:11:09;;;;;;;7.75;4.28;;;;;;;22.34;48.06;97219.26;1707786;83;27405;-89
2021/10/03 11:13:48;;;;;;;8.03;5.72;;;;;;;22.33;47.93;97219.02;1730724;82;25729;-89
2021/10/03 11:16:37;;;;;;;9.70;5.62;;;;;;;22.36;48.39;97210.72;1708479;82;25755;-88
2021/10/03 11:19:10;;;;;;;9.23;4.97;;;;;;;22.39;48.63;97208.22;1701353;82;25922;-88
2021/10/03 11:21:42;;;;;;;;;;;;;;;22.44;48.25;97205.42;1728877;81;25676;-89
2021/10/03 11:24:17;;;;;;;6.22;4.83;;;;;;;22.53;48.52;97211.09;1723667;81;26812;-89
2021/10/03 11:26:51;;;;;;;6.25;4.70;;;;;;;22.53;48.52;97211.09;1724438;82;25769;-89
2021/10/03 11:29:27;;;;;;;5.60;4.95;;;;;;;22.58;48.49;97210.45;1727589;82;25831;-89
2021/10/03 11:31:57;;;;;;;5.00;4.47;;;;;;;22.58;47.70;97209.08;1730030;82;25891;-93
2021/10/03 11:34:43;;;;;;;5.95;4.15;;;;;;;22.58;47.47;97199.45;1731792;82;25776;-90
2021/10/03 11:37:39;;;;;;;7.03;4.92;;;;;;;22.54;47.33;97200.35;1729347;82;27457;-91